KSGU

St George Regional Airport

St George, Utah, USA
KSGU 210506Z 2105/2124 23013KT P6SM SCT180 FM210600 15010KT P6SM SCT180 FM211800 22012G19KT P6SM SCT120 BKN180
Issued Valid From Valid To
Aug-21 @ 05:06 UTC
(13 hours ago)
Aug-21 @ 05:00 UTC
(13 hours ago)
Aug-22 @ 00:00 UTC
(in 6 hours)
Expired Click to View Aug-21 @ 05:00 to Aug-21 @ 06:00
KSGU 210506Z 2105/2124 23013KT P6SM SCT180
Wind Visibility Clouds
230° at 13 knots Greater than 6 miles
  • Scattered at 18,000' AGL
From Aug-21 @ 06:00 to Aug-21 @ 18:00
FM210600 15010KT P6SM SCT180
Wind Visibility Clouds
150° at 10 knots Greater than 6 miles
  • Scattered at 18,000' AGL
From Aug-21 @ 18:00 to Aug-22 @ 00:00
FM211800 22012G19KT P6SM SCT120 BKN180
Wind Visibility Clouds
220° at 12 knots
 Gusting to 19 knots
Greater than 6 miles
  • Scattered at 12,000' AGL
  • Broken at 18,000' AGL
KSGU 210506Z 2105/2124 23013KT P6SM SCT180 FM210600 15010KT P6SM SCT180 FM211800 22012G19KT P6SM SCT120 BKN180
Issued Aug-21 @ 05:06 UTC
(13 hours ago)
Valid From Aug-21 @ 05:00 UTC
(13 hours ago)
Valid To Aug-22 @ 00:00 UTC
(in 6 hours)
Aug-21 @ 05:00 - Aug-21 @ 06:00
Wind Visibility
230° at 13 knots Greater than 6 miles
Clouds
  • Scattered at 18,000' AGL
From Aug-21 @ 06:00 - Aug-21 @ 18:00
Wind Visibility
150° at 10 knots Greater than 6 miles
Clouds
  • Scattered at 18,000' AGL
From Aug-21 @ 18:00 - Aug-22 @ 00:00
Wind Visibility
220° at 12 knots
 Gusting to 19 knots
Greater than 6 miles
Clouds
  • Scattered at 12,000' AGL
  • Broken at 18,000' AGL